Terminal Aerodrome Forecast
Issued by NWS

Home | Current Version | Previous Version | Text Only | Print | Product List | Glossary On
Versions: 1 2 3 4 5 6 7 8 9 10 11 12 13 14 15 16 17 18 19 20 21 22 23 24 25 26 27 28 29 30
905
FTUS43 KDLH 180540
TAFHIB
TAF
KHIB 180540Z 1806/1906 35005KT P6SM SKC
     FM181000 00000KT 4SM BR SCT250
     FM181200 00000KT 1/4SM FG SCT010
     FM181300 VRB03KT 1SM BR SCT025
     FM181400 VRB03KT P6SM BKN140
     FM182300 30004KT P6SM BKN060=

USA.gov is the U.S. government's official web portal to all federal, state and local government web resources and services.